createdAt,value
2023-03-03T00:01:29.709Z,6.23
2023-03-03T00:06:33.325Z,6.53
2023-03-03T00:11:38.214Z,6.77
2023-03-03T00:16:42.199Z,6.17
2023-03-03T00:21:47.798Z,5.67
2023-03-03T00:26:55.627Z,5.13
2023-03-03T00:32:33.973Z,5.73
2023-03-03T00:37:42.497Z,5.40
2023-03-03T00:42:50.900Z,5.53
2023-03-03T00:47:54.551Z,5.87
2023-03-03T00:53:04.659Z,5.10
2023-03-03T00:58:09.598Z,5.23
2023-03-03T01:03:20.002Z,6.13
2023-03-03T01:08:24.050Z,4.90
2023-03-03T01:13:31.495Z,5.20
2023-03-03T01:18:36.235Z,5.50
2023-03-03T01:23:40.231Z,5.10
2023-03-03T01:28:45.060Z,5.33
2023-03-03T01:33:48.415Z,5.10
2023-03-03T01:38:52.218Z,5.43
2023-03-03T01:43:57.515Z,5.50
2023-03-03T01:49:04.198Z,5.07
2023-03-03T01:54:13.686Z,5.13
2023-03-03T01:59:22.607Z,5.37
2023-03-03T02:04:27.857Z,4.80
2023-03-03T02:09:38.716Z,4.67
2023-03-03T02:14:44.064Z,4.53
2023-03-03T02:19:56.222Z,4.87
2023-03-03T02:25:03.645Z,4.70
2023-03-03T02:30:15.920Z,5.20
2023-03-03T02:35:39.329Z,4.33
2023-03-03T02:40:50.941Z,4.03
2023-03-03T02:45:55.964Z,4.17
2023-03-03T02:51:02.047Z,4.40
2023-03-03T02:56:07.485Z,4.27
2023-03-03T03:01:12.666Z,4.57
2023-03-03T03:06:16.666Z,4.50
2023-03-03T03:11:20.462Z,4.37
2023-03-03T03:16:26.234Z,3.97
2023-03-03T03:21:30.150Z,4.73
2023-03-03T03:26:34.841Z,3.97
2023-03-03T03:31:41.052Z,4.10
2023-03-03T03:36:47.093Z,4.37
2023-03-03T03:41:52.851Z,4.73
2023-03-03T03:46:58.031Z,4.07
2023-03-03T03:52:02.564Z,4.53
2023-03-03T03:57:09.148Z,4.23
2023-03-03T04:02:14.803Z,4.83
2023-03-03T04:07:18.556Z,4.23
2023-03-03T04:12:22.085Z,4.20
2023-03-03T04:17:26.986Z,4.40
2023-03-03T04:22:34.107Z,4.47
2023-03-03T04:27:38.537Z,4.43
2023-03-03T04:32:44.308Z,4.47
2023-03-03T04:37:49.718Z,4.13
2023-03-03T04:42:53.845Z,4.33
2023-03-03T04:47:59.404Z,4.03
2023-03-03T04:53:03.111Z,4.07
2023-03-03T04:58:06.895Z,4.13
2023-03-03T05:03:13.438Z,4.30
2023-03-03T05:08:19.128Z,4.30
2023-03-03T05:13:22.847Z,4.13
2023-03-03T05:18:35.446Z,4.03
2023-03-03T05:23:39.500Z,3.97
2023-03-03T05:28:42.854Z,4.67
2023-03-03T05:33:47.659Z,5.73
2023-03-03T05:38:51.109Z,6.93
2023-03-03T05:43:54.872Z,7.23
2023-03-03T05:49:00.069Z,7.37
2023-03-03T05:54:03.510Z,7.70
2023-03-03T05:59:06.968Z,7.40
2023-03-03T06:04:12.053Z,7.97
2023-03-03T06:09:15.717Z,8.73
2023-03-03T06:14:19.174Z,8.63
2023-03-03T06:19:24.122Z,8.37
2023-03-03T06:24:30.498Z,9.20
2023-03-03T06:29:33.964Z,10.33
2023-03-03T06:34:38.842Z,9.93
2023-03-03T06:39:42.559Z,11.63
2023-03-03T06:44:46.161Z,10.33
2023-03-03T06:49:50.884Z,9.53
2023-03-03T06:54:56.770Z,10.97
2023-03-03T07:00:21.552Z,10.93
2023-03-03T07:05:29.115Z,10.70
2023-03-03T07:10:32.679Z,11.93
2023-03-03T07:15:37.850Z,10.87
2023-03-03T07:20:42.935Z,10.37
2023-03-03T07:25:47.070Z,10.27
2023-03-03T07:30:50.612Z,12.03
2023-03-03T07:35:57.836Z,12.23
2023-03-03T07:41:03.263Z,11.97
2023-03-03T07:46:29.440Z,9.57
2023-03-03T07:51:42.374Z,10.60
2023-03-03T07:56:46.307Z,10.70
2023-03-03T08:01:55.360Z,10.80
2023-03-03T08:07:01.457Z,10.00
2023-03-03T08:12:35.184Z,10.20
2023-03-03T08:17:40.794Z,9.10
2023-03-03T08:22:45.752Z,8.73
2023-03-03T08:27:49.356Z,9.53
2023-03-03T08:32:52.838Z,10.07
2023-03-03T08:37:58.132Z,10.70
2023-03-03T08:43:01.971Z,9.13
2023-03-03T08:48:06.316Z,8.37
2023-03-03T08:53:11.908Z,11.07
2023-03-03T08:58:16.249Z,10.07
2023-03-03T09:03:19.664Z,11.30
2023-03-03T09:08:24.521Z,9.93
2023-03-03T09:13:30.246Z,9.97
2023-03-03T09:18:37.634Z,9.68
2023-03-03T09:23:43.769Z,9.10
2023-03-03T09:28:47.111Z,9.82
2023-03-03T09:33:52.140Z,9.57
2023-03-03T09:38:57.998Z,9.70
2023-03-03T09:44:23.858Z,8.85
2023-03-03T09:49:34.089Z,10.73
2023-03-03T09:54:54.310Z,10.18
2023-03-03T10:00:11.276Z,8.68
2023-03-03T10:05:30.622Z,9.95
2023-03-03T10:10:50.071Z,9.02
2023-03-03T10:16:05.202Z,11.00
2023-03-03T10:21:13.010Z,10.00
2023-03-03T10:26:43.913Z,9.68
2023-03-03T10:32:02.413Z,9.65
2023-03-03T10:37:12.364Z,9.52
2023-03-03T10:42:29.612Z,9.32
2023-03-03T10:47:51.691Z,9.10
2023-03-03T10:53:04.796Z,9.52
2023-03-03T10:58:24.140Z,9.07
2023-03-03T11:04:04.996Z,9.73
2023-03-03T11:09:18.636Z,8.38
2023-03-03T11:14:31.364Z,8.52
2023-03-03T11:20:02.185Z,8.35
2023-03-03T11:25:22.643Z,8.32
2023-03-03T11:30:41.021Z,8.13
2023-03-03T11:35:50.430Z,8.23
2023-03-03T11:40:57.796Z,8.68
2023-03-03T11:46:08.646Z,8.43
2023-03-03T11:51:17.043Z,7.82
2023-03-03T11:56:26.363Z,7.47
2023-03-03T12:01:37.983Z,8.73
2023-03-03T12:06:54.836Z,8.10
2023-03-03T12:12:04.712Z,8.98
2023-03-03T12:17:18.568Z,10.52
2023-03-03T12:22:34.143Z,8.35
2023-03-03T12:27:44.427Z,8.85
2023-03-03T12:33:05.804Z,9.02
2023-03-03T12:38:18.109Z,8.50
2023-03-03T12:43:37.917Z,7.35
2023-03-03T12:48:45.220Z,7.80
2023-03-03T12:54:07.585Z,6.97
2023-03-03T12:59:18.348Z,7.53
2023-03-03T13:04:35.611Z,8.32
2023-03-03T13:09:50.535Z,8.07
2023-03-03T13:15:01.535Z,7.72
2023-03-03T13:20:18.640Z,7.85
2023-03-03T13:25:40.836Z,8.32
2023-03-03T13:30:49.923Z,7.40
2023-03-03T13:35:58.012Z,8.50
2023-03-03T13:41:11.790Z,8.30
2023-03-03T13:46:21.933Z,7.80
2023-03-03T13:51:37.589Z,7.18
2023-03-03T13:57:01.637Z,7.65
2023-03-03T14:02:20.770Z,8.15
2023-03-03T14:07:34.944Z,6.55
2023-03-03T14:12:46.304Z,6.40
2023-03-03T14:18:03.539Z,8.15
2023-03-03T14:23:14.749Z,6.18
2023-03-03T14:28:21.388Z,7.88
2023-03-03T14:33:31.011Z,7.38
2023-03-03T14:38:47.870Z,8.20
2023-03-03T14:43:59.690Z,7.70
2023-03-03T14:49:05.200Z,6.00
2023-03-03T14:54:20.636Z,6.63
2023-03-03T14:59:27.054Z,7.75
2023-03-03T15:04:31.997Z,6.78
2023-03-03T15:09:43.412Z,6.80
2023-03-03T15:14:48.588Z,5.35
2023-03-03T15:20:06.281Z,6.53
2023-03-03T15:25:22.840Z,6.10
2023-03-03T15:30:33.266Z,5.57
2023-03-03T15:35:45.984Z,6.13
2023-03-03T15:40:58.500Z,5.60
2023-03-03T15:46:13.605Z,5.28
2023-03-03T15:51:31.527Z,4.50
2023-03-03T15:56:43.351Z,4.75
2023-03-03T16:01:57.466Z,4.28
2023-03-03T16:07:07.926Z,4.65
2023-03-03T16:12:21.944Z,4.75
2023-03-03T16:17:32.649Z,5.68
2023-03-03T16:23:01.984Z,5.32
2023-03-03T16:28:11.893Z,5.70
2023-03-03T16:33:25.017Z,6.18
2023-03-03T16:38:34.671Z,5.28
2023-03-03T16:43:48.748Z,5.90
2023-03-03T16:49:01.899Z,5.80
2023-03-03T16:54:11.686Z,6.22
2023-03-03T16:59:42.117Z,6.47
2023-03-03T17:04:49.534Z,6.07
2023-03-03T17:10:05.316Z,6.80
2023-03-03T17:15:23.246Z,6.28
2023-03-03T17:20:36.554Z,6.43
2023-03-03T17:25:47.897Z,5.97
2023-03-03T17:31:00.272Z,5.65
2023-03-03T17:36:17.363Z,6.45
2023-03-03T17:41:30.426Z,6.72
2023-03-03T17:46:43.044Z,7.57
2023-03-03T17:52:15.059Z,6.78
2023-03-03T17:57:36.201Z,5.80
2023-03-03T18:03:17.300Z,6.45
2023-03-03T18:08:42.193Z,6.20
2023-03-03T18:14:01.884Z,6.18
2023-03-03T18:19:24.981Z,6.25
2023-03-03T18:24:35.316Z,6.30
2023-03-03T18:29:39.857Z,6.97
2023-03-03T18:34:46.477Z,6.53
2023-03-03T18:40:18.744Z,6.35
2023-03-03T18:45:51.560Z,5.43
2023-03-03T18:50:58.018Z,6.82
2023-03-03T18:56:04.428Z,7.97
2023-03-03T19:01:31.636Z,7.22
2023-03-03T19:07:09.699Z,7.85
2023-03-03T19:12:19.788Z,7.88
2023-03-03T19:17:46.422Z,7.40
2023-03-03T19:22:53.166Z,6.57
2023-03-03T19:28:16.199Z,7.75
2023-03-03T19:33:44.112Z,8.38
2023-03-03T19:39:02.814Z,8.00
2023-03-03T19:44:21.038Z,7.55
2023-03-03T19:49:41.668Z,7.30
2023-03-03T19:55:01.604Z,7.43
2023-03-03T20:00:20.032Z,8.23
2023-03-03T20:05:38.427Z,9.27
2023-03-03T20:10:52.118Z,8.32
2023-03-03T20:16:13.038Z,7.05
2023-03-03T20:21:25.599Z,8.23
2023-03-03T20:26:35.778Z,7.82
2023-03-03T20:31:51.836Z,8.90
2023-03-03T20:37:19.182Z,7.80
2023-03-03T20:42:35.057Z,7.57
2023-03-03T20:47:52.051Z,8.75
2023-03-03T20:53:09.393Z,4.10
2023-03-03T20:58:21.688Z,7.27
2023-03-03T21:03:34.781Z,6.03
2023-03-03T21:08:44.715Z,7.03
2023-03-03T21:13:52.373Z,7.43
2023-03-03T21:19:04.188Z,7.18
2023-03-03T21:24:08.614Z,7.90
2023-03-03T21:29:18.795Z,7.53
2023-03-03T21:34:28.743Z,7.53
2023-03-03T21:39:33.956Z,7.07
2023-03-03T21:44:40.883Z,7.87
2023-03-03T21:49:47.113Z,7.20
2023-03-03T21:54:52.585Z,7.93
2023-03-03T21:59:56.095Z,8.03
2023-03-03T22:05:02.643Z,9.10
2023-03-03T22:10:07.756Z,7.93
2023-03-03T22:15:11.830Z,8.67
2023-03-03T22:20:17.109Z,7.57
2023-03-03T22:25:20.535Z,7.93
2023-03-03T22:30:23.870Z,7.87
2023-03-03T22:35:28.753Z,7.20
2023-03-03T22:40:32.162Z,6.90
2023-03-03T22:45:35.526Z,8.10
2023-03-03T22:50:42.876Z,7.50
2023-03-03T22:55:46.210Z,8.17
2023-03-03T23:00:49.957Z,7.73
2023-03-03T23:05:54.970Z,8.50
2023-03-03T23:10:58.312Z,7.93
2023-03-03T23:16:03.445Z,8.43
2023-03-03T23:21:08.263Z,8.63
2023-03-03T23:26:11.722Z,8.37
2023-03-03T23:31:15.263Z,7.93
2023-03-03T23:36:20.206Z,7.83
2023-03-03T23:41:24.815Z,8.00
2023-03-03T23:46:28.217Z,7.83
2023-03-03T23:51:33.266Z,8.47
2023-03-03T23:56:36.756Z,7.63
